sensor_id;sensor_type;location;lat;lon;timestamp;P1;durP1;ratioP1;P2;durP2;ratioP2
8219;SDS011;4151;51.110;7.020;2023-04-01T00:01:59;3.33;;;0.70;;
8219;SDS011;4151;51.110;7.020;2023-04-01T00:04:25;2.27;;;0.80;;
8219;SDS011;4151;51.110;7.020;2023-04-01T00:06:50;1.73;;;1.00;;
8219;SDS011;4151;51.110;7.020;2023-04-01T00:09:16;4.43;;;1.07;;
8219;SDS011;4151;51.110;7.020;2023-04-01T00:11:42;2.00;;;0.60;;
8219;SDS011;4151;51.110;7.020;2023-04-01T00:14:09;3.20;;;1.07;;
8219;SDS011;4151;51.110;7.020;2023-04-01T00:16:35;2.90;;;0.80;;
8219;SDS011;4151;51.110;7.020;2023-04-01T00:19:01;2.80;;;0.80;;
8219;SDS011;4151;51.110;7.020;2023-04-01T00:21:27;1.47;;;0.70;;
8219;SDS011;4151;51.110;7.020;2023-04-01T00:23:52;4.97;;;0.70;;
8219;SDS011;4151;51.110;7.020;2023-04-01T00:26:18;1.87;;;0.63;;
8219;SDS011;4151;51.110;7.020;2023-04-01T00:28:46;2.30;;;0.80;;
8219;SDS011;4151;51.110;7.020;2023-04-01T00:31:12;2.40;;;1.07;;
8219;SDS011;4151;51.110;7.020;2023-04-01T00:33:38;0.73;;;0.60;;
8219;SDS011;4151;51.110;7.020;2023-04-01T00:36:06;1.57;;;0.80;;
8219;SDS011;4151;51.110;7.020;2023-04-01T00:38:33;1.10;;;0.60;;
8219;SDS011;4151;51.110;7.020;2023-04-01T00:40:59;1.40;;;0.60;;
8219;SDS011;4151;51.110;7.020;2023-04-01T00:43:25;1.63;;;0.60;;
8219;SDS011;4151;51.110;7.020;2023-04-01T00:45:50;1.63;;;1.03;;
8219;SDS011;4151;51.110;7.020;2023-04-01T00:48:17;1.77;;;0.70;;
8219;SDS011;4151;51.110;7.020;2023-04-01T00:51:00;1.00;;;0.50;;
8219;SDS011;4151;51.110;7.020;2023-04-01T00:53:31;0.70;;;0.50;;
8219;SDS011;4151;51.110;7.020;2023-04-01T00:56:19;1.53;;;0.90;;
8219;SDS011;4151;51.110;7.020;2023-04-01T00:58:53;1.77;;;0.63;;
8219;SDS011;4151;51.110;7.020;2023-04-01T01:01:22;4.17;;;1.00;;
8219;SDS011;4151;51.110;7.020;2023-04-01T01:03:50;2.10;;;0.60;;
8219;SDS011;4151;51.110;7.020;2023-04-01T01:17:02;1.57;;;1.13;;
8219;SDS011;4151;51.110;7.020;2023-04-01T01:19:50;0.83;;;0.50;;
8219;SDS011;4151;51.110;7.020;2023-04-01T01:22:36;2.20;;;0.60;;
8219;SDS011;4151;51.110;7.020;2023-04-01T01:28:11;3.10;;;0.63;;
8219;SDS011;4151;51.110;7.020;2023-04-01T01:36:48;1.80;;;0.67;;
8219;SDS011;4151;51.110;7.020;2023-04-01T01:39:20;0.80;;;0.60;;
8219;SDS011;4151;51.110;7.020;2023-04-01T01:41:51;1.30;;;0.80;;
8219;SDS011;4151;51.110;7.020;2023-04-01T01:44:18;3.37;;;0.77;;
8219;SDS011;4151;51.110;7.020;2023-04-01T01:46:45;2.87;;;0.80;;
8219;SDS011;4151;51.110;7.020;2023-04-01T01:49:12;0.90;;;0.60;;
8219;SDS011;4151;51.110;7.020;2023-04-01T01:51:40;2.13;;;0.63;;
8219;SDS011;4151;51.110;7.020;2023-04-01T01:54:11;0.90;;;0.60;;
8219;SDS011;4151;51.110;7.020;2023-04-01T01:56:38;2.13;;;0.60;;
8219;SDS011;4151;51.110;7.020;2023-04-01T01:59:07;2.40;;;0.60;;
8219;SDS011;4151;51.110;7.020;2023-04-01T02:01:35;0.60;;;0.50;;
8219;SDS011;4151;51.110;7.020;2023-04-01T02:04:04;1.10;;;0.60;;
8219;SDS011;4151;51.110;7.020;2023-04-01T02:06:32;0.90;;;0.60;;
8219;SDS011;4151;51.110;7.020;2023-04-01T02:09:02;3.03;;;1.00;;
8219;SDS011;4151;51.110;7.020;2023-04-01T02:11:32;3.03;;;0.87;;
8219;SDS011;4151;51.110;7.020;2023-04-01T02:16:53;2.83;;;0.70;;
8219;SDS011;4151;51.110;7.020;2023-04-01T02:19:31;0.90;;;0.50;;
8219;SDS011;4151;51.110;7.020;2023-04-01T02:22:02;1.10;;;0.60;;
8219;SDS011;4151;51.110;7.020;2023-04-01T02:24:30;0.80;;;0.50;;
8219;SDS011;4151;51.110;7.020;2023-04-01T02:26:58;1.77;;;0.67;;
8219;SDS011;4151;51.110;7.020;2023-04-01T02:29:24;0.97;;;0.50;;
8219;SDS011;4151;51.110;7.020;2023-04-01T02:31:50;0.80;;;0.50;;
8219;SDS011;4151;51.110;7.020;2023-04-01T02:34:17;2.00;;;0.70;;
8219;SDS011;4151;51.110;7.020;2023-04-01T02:36:44;1.90;;;0.63;;
8219;SDS011;4151;51.110;7.020;2023-04-01T02:39:09;1.10;;;0.70;;
8219;SDS011;4151;51.110;7.020;2023-04-01T02:41:42;0.60;;;0.50;;
8219;SDS011;4151;51.110;7.020;2023-04-01T02:44:10;0.80;;;0.60;;
8219;SDS011;4151;51.110;7.020;2023-04-01T02:46:36;0.60;;;0.60;;
8219;SDS011;4151;51.110;7.020;2023-04-01T02:49:02;3.13;;;0.70;;
8219;SDS011;4151;51.110;7.020;2023-04-01T02:51:28;1.47;;;1.37;;
8219;SDS011;4151;51.110;7.020;2023-04-01T02:53:53;2.13;;;0.50;;
8219;SDS011;4151;51.110;7.020;2023-04-01T02:56:19;3.70;;;0.63;;
8219;SDS011;4151;51.110;7.020;2023-04-01T02:58:45;2.03;;;0.60;;
8219;SDS011;4151;51.110;7.020;2023-04-01T03:01:11;1.40;;;0.80;;
8219;SDS011;4151;51.110;7.020;2023-04-01T03:03:37;1.47;;;0.70;;
8219;SDS011;4151;51.110;7.020;2023-04-01T03:06:06;1.47;;;0.80;;
8219;SDS011;4151;51.110;7.020;2023-04-01T03:08:33;4.70;;;0.67;;
8219;SDS011;4151;51.110;7.020;2023-04-01T03:10:59;2.87;;;0.70;;
8219;SDS011;4151;51.110;7.020;2023-04-01T03:13:25;1.13;;;0.80;;
8219;SDS011;4151;51.110;7.020;2023-04-01T03:15:51;3.17;;;0.60;;
8219;SDS011;4151;51.110;7.020;2023-04-01T03:18:16;0.80;;;0.70;;
8219;SDS011;4151;51.110;7.020;2023-04-01T03:20:42;1.77;;;0.50;;
8219;SDS011;4151;51.110;7.020;2023-04-01T03:23:07;1.00;;;0.63;;
8219;SDS011;4151;51.110;7.020;2023-04-01T03:25:33;5.57;;;0.70;;
8219;SDS011;4151;51.110;7.020;2023-04-01T03:27:59;1.83;;;0.60;;
8219;SDS011;4151;51.110;7.020;2023-04-01T03:30:25;1.80;;;0.77;;
8219;SDS011;4151;51.110;7.020;2023-04-01T03:32:51;2.10;;;0.60;;
8219;SDS011;4151;51.110;7.020;2023-04-01T03:35:17;1.77;;;0.70;;
8219;SDS011;4151;51.110;7.020;2023-04-01T03:37:43;1.73;;;0.97;;
8219;SDS011;4151;51.110;7.020;2023-04-01T03:40:09;2.10;;;0.70;;
8219;SDS011;4151;51.110;7.020;2023-04-01T03:42:35;1.47;;;0.63;;
8219;SDS011;4151;51.110;7.020;2023-04-01T03:45:00;1.27;;;0.60;;
8219;SDS011;4151;51.110;7.020;2023-04-01T03:47:27;1.77;;;0.53;;
8219;SDS011;4151;51.110;7.020;2023-04-01T03:49:53;1.50;;;0.60;;
8219;SDS011;4151;51.110;7.020;2023-04-01T03:52:18;0.70;;;0.50;;
8219;SDS011;4151;51.110;7.020;2023-04-01T03:54:44;0.60;;;0.50;;
8219;SDS011;4151;51.110;7.020;2023-04-01T03:57:09;0.70;;;0.60;;
8219;SDS011;4151;51.110;7.020;2023-04-01T03:59:35;2.10;;;0.77;;
8219;SDS011;4151;51.110;7.020;2023-04-01T04:02:01;1.93;;;0.60;;
8219;SDS011;4151;51.110;7.020;2023-04-01T04:04:27;1.67;;;0.70;;
8219;SDS011;4151;51.110;7.020;2023-04-01T04:06:53;0.90;;;0.60;;
8219;SDS011;4151;51.110;7.020;2023-04-01T04:09:19;0.60;;;0.50;;
8219;SDS011;4151;51.110;7.020;2023-04-01T04:11:44;0.60;;;0.60;;
8219;SDS011;4151;51.110;7.020;2023-04-01T04:14:10;1.33;;;0.70;;
8219;SDS011;4151;51.110;7.020;2023-04-01T04:16:36;2.00;;;0.60;;
8219;SDS011;4151;51.110;7.020;2023-04-01T04:19:02;2.73;;;0.70;;
8219;SDS011;4151;51.110;7.020;2023-04-01T04:21:28;4.53;;;0.60;;
8219;SDS011;4151;51.110;7.020;2023-04-01T04:23:53;1.00;;;0.60;;
8219;SDS011;4151;51.110;7.020;2023-04-01T04:26:19;2.50;;;0.60;;
8219;SDS011;4151;51.110;7.020;2023-04-01T04:28:45;0.80;;;0.67;;
8219;SDS011;4151;51.110;7.020;2023-04-01T04:31:10;1.47;;;0.60;;
8219;SDS011;4151;51.110;7.020;2023-04-01T04:33:36;1.10;;;0.70;;
8219;SDS011;4151;51.110;7.020;2023-04-01T04:36:03;2.87;;;0.60;;
8219;SDS011;4151;51.110;7.020;2023-04-01T04:38:29;0.90;;;0.60;;
8219;SDS011;4151;51.110;7.020;2023-04-01T04:40:55;1.83;;;0.70;;
8219;SDS011;4151;51.110;7.020;2023-04-01T04:43:21;0.80;;;0.70;;
8219;SDS011;4151;51.110;7.020;2023-04-01T04:45:46;3.00;;;0.97;;
8219;SDS011;4151;51.110;7.020;2023-04-01T04:48:13;3.63;;;0.80;;
8219;SDS011;4151;51.110;7.020;2023-04-01T04:50:43;1.00;;;0.70;;
8219;SDS011;4151;51.110;7.020;2023-04-01T04:53:10;0.93;;;0.60;;
8219;SDS011;4151;51.110;7.020;2023-04-01T04:55:36;0.70;;;0.60;;
8219;SDS011;4151;51.110;7.020;2023-04-01T04:58:02;2.40;;;0.60;;
8219;SDS011;4151;51.110;7.020;2023-04-01T05:00:27;0.80;;;0.60;;
8219;SDS011;4151;51.110;7.020;2023-04-01T05:02:53;3.37;;;0.87;;
8219;SDS011;4151;51.110;7.020;2023-04-01T05:05:18;2.50;;;0.70;;
8219;SDS011;4151;51.110;7.020;2023-04-01T05:07:44;1.93;;;0.83;;
8219;SDS011;4151;51.110;7.020;2023-04-01T05:10:10;1.83;;;1.00;;
8219;SDS011;4151;51.110;7.020;2023-04-01T05:12:35;4.30;;;0.70;;
8219;SDS011;4151;51.110;7.020;2023-04-01T05:15:04;1.73;;;0.80;;
8219;SDS011;4151;51.110;7.020;2023-04-01T05:17:30;1.80;;;0.80;;
8219;SDS011;4151;51.110;7.020;2023-04-01T05:19:55;3.07;;;0.80;;
8219;SDS011;4151;51.110;7.020;2023-04-01T05:22:21;0.90;;;0.80;;
8219;SDS011;4151;51.110;7.020;2023-04-01T05:24:47;1.43;;;0.87;;
8219;SDS011;4151;51.110;7.020;2023-04-01T05:27:12;1.77;;;0.87;;
8219;SDS011;4151;51.110;7.020;2023-04-01T05:29:38;2.83;;;0.70;;
8219;SDS011;4151;51.110;7.020;2023-04-01T05:32:03;4.03;;;0.80;;
8219;SDS011;4151;51.110;7.020;2023-04-01T05:34:29;1.90;;;1.17;;
8219;SDS011;4151;51.110;7.020;2023-04-01T05:36:54;2.23;;;1.10;;
8219;SDS011;4151;51.110;7.020;2023-04-01T05:39:20;2.80;;;1.17;;
8219;SDS011;4151;51.110;7.020;2023-04-01T05:41:46;2.30;;;1.20;;
8219;SDS011;4151;51.110;7.020;2023-04-01T05:44:11;2.13;;;1.40;;
8219;SDS011;4151;51.110;7.020;2023-04-01T05:46:37;1.90;;;1.10;;
8219;SDS011;4151;51.110;7.020;2023-04-01T05:49:03;2.40;;;1.20;;
8219;SDS011;4151;51.110;7.020;2023-04-01T05:51:28;1.00;;;0.90;;
8219;SDS011;4151;51.110;7.020;2023-04-01T05:53:54;1.70;;;1.23;;
8219;SDS011;4151;51.110;7.020;2023-04-01T05:56:19;2.77;;;1.60;;
8219;SDS011;4151;51.110;7.020;2023-04-01T05:58:46;1.63;;;1.27;;
8219;SDS011;4151;51.110;7.020;2023-04-01T06:01:16;2.13;;;1.60;;
8219;SDS011;4151;51.110;7.020;2023-04-01T06:03:43;1.90;;;1.40;;
8219;SDS011;4151;51.110;7.020;2023-04-01T06:06:11;1.63;;;1.53;;
8219;SDS011;4151;51.110;7.020;2023-04-01T06:08:40;1.50;;;1.40;;
8219;SDS011;4151;51.110;7.020;2023-04-01T06:11:12;1.60;;;1.47;;
8219;SDS011;4151;51.110;7.020;2023-04-01T06:19:18;3.20;;;1.97;;
8219;SDS011;4151;51.110;7.020;2023-04-01T06:21:55;3.17;;;1.43;;
8219;SDS011;4151;51.110;7.020;2023-04-01T06:30:13;1.60;;;1.50;;
8219;SDS011;4151;51.110;7.020;2023-04-01T06:33:02;2.73;;;2.13;;
8219;SDS011;4151;51.110;7.020;2023-04-01T06:38:20;1.57;;;1.40;;
8219;SDS011;4151;51.110;7.020;2023-04-01T06:43:42;1.67;;;1.50;;
8219;SDS011;4151;51.110;7.020;2023-04-01T06:48:49;3.53;;;1.87;;
8219;SDS011;4151;51.110;7.020;2023-04-01T06:54:30;3.03;;;2.40;;
8219;SDS011;4151;51.110;7.020;2023-04-01T06:57:20;1.83;;;1.63;;
8219;SDS011;4151;51.110;7.020;2023-04-01T06:59:51;4.40;;;1.50;;
8219;SDS011;4151;51.110;7.020;2023-04-01T07:02:24;2.33;;;1.50;;
8219;SDS011;4151;51.110;7.020;2023-04-01T07:04:57;3.10;;;1.80;;
8219;SDS011;4151;51.110;7.020;2023-04-01T07:07:57;4.97;;;2.03;;
8219;SDS011;4151;51.110;7.020;2023-04-01T07:11:01;2.17;;;1.80;;
8219;SDS011;4151;51.110;7.020;2023-04-01T07:13:27;1.73;;;1.53;;
8219;SDS011;4151;51.110;7.020;2023-04-01T07:18:48;3.87;;;1.93;;
8219;SDS011;4151;51.110;7.020;2023-04-01T07:21:26;7.43;;;1.70;;
8219;SDS011;4151;51.110;7.020;2023-04-01T07:24:01;3.30;;;1.90;;
8219;SDS011;4151;51.110;7.020;2023-04-01T07:26:30;2.40;;;1.93;;
8219;SDS011;4151;51.110;7.020;2023-04-01T07:28:56;2.53;;;2.20;;
8219;SDS011;4151;51.110;7.020;2023-04-01T07:34:05;4.30;;;2.10;;
8219;SDS011;4151;51.110;7.020;2023-04-01T07:37:10;8.60;;;1.70;;
8219;SDS011;4151;51.110;7.020;2023-04-01T07:39:56;3.63;;;2.07;;
8219;SDS011;4151;51.110;7.020;2023-04-01T07:50:27;5.30;;;2.90;;
8219;SDS011;4151;51.110;7.020;2023-04-01T07:58:12;5.67;;;3.30;;
8219;SDS011;4151;51.110;7.020;2023-04-01T08:00:59;5.27;;;3.17;;
8219;SDS011;4151;51.110;7.020;2023-04-01T08:06:37;9.30;;;3.80;;
8219;SDS011;4151;51.110;7.020;2023-04-01T08:09:20;3.90;;;3.47;;
8219;SDS011;4151;51.110;7.020;2023-04-01T08:12:11;10.00;;;3.50;;
8219;SDS011;4151;51.110;7.020;2023-04-01T08:20:47;4.57;;;3.73;;
8219;SDS011;4151;51.110;7.020;2023-04-01T08:23:33;4.30;;;2.90;;
8219;SDS011;4151;51.110;7.020;2023-04-01T08:26:08;5.37;;;4.03;;
8219;SDS011;4151;51.110;7.020;2023-04-01T08:34:04;5.30;;;3.50;;
8219;SDS011;4151;51.110;7.020;2023-04-01T08:36:38;4.73;;;3.73;;
8219;SDS011;4151;51.110;7.020;2023-04-01T08:45:30;5.40;;;3.63;;
8219;SDS011;4151;51.110;7.020;2023-04-01T08:54:04;3.30;;;2.73;;
8219;SDS011;4151;51.110;7.020;2023-04-01T09:04:38;3.20;;;2.70;;
8219;SDS011;4151;51.110;7.020;2023-04-01T09:15:54;1.80;;;1.70;;
8219;SDS011;4151;51.110;7.020;2023-04-01T09:18:43;3.17;;;2.07;;
8219;SDS011;4151;51.110;7.020;2023-04-01T09:22:19;2.43;;;2.23;;
8219;SDS011;4151;51.110;7.020;2023-04-01T09:27:29;2.07;;;1.87;;
8219;SDS011;4151;51.110;7.020;2023-04-01T09:37:53;3.50;;;2.60;;
8219;SDS011;4151;51.110;7.020;2023-04-01T09:40:31;4.70;;;3.00;;
8219;SDS011;4151;51.110;7.020;2023-04-01T09:43:06;5.33;;;2.67;;
8219;SDS011;4151;51.110;7.020;2023-04-01T09:45:44;5.97;;;2.83;;
8219;SDS011;4151;51.110;7.020;2023-04-01T09:54:06;4.20;;;3.17;;
8219;SDS011;4151;51.110;7.020;2023-04-01T10:10:31;8.10;;;5.10;;
8219;SDS011;4151;51.110;7.020;2023-04-01T10:45:35;5.23;;;4.10;;
8219;SDS011;4151;51.110;7.020;2023-04-01T10:48:44;5.13;;;3.80;;
8219;SDS011;4151;51.110;7.020;2023-04-01T11:05:07;5.93;;;4.63;;
8219;SDS011;4151;51.110;7.020;2023-04-01T11:08:11;7.50;;;4.40;;
8219;SDS011;4151;51.110;7.020;2023-04-01T11:13:51;5.40;;;4.50;;
8219;SDS011;4151;51.110;7.020;2023-04-01T11:20:19;6.57;;;5.53;;
8219;SDS011;4151;51.110;7.020;2023-04-01T11:28:28;7.83;;;6.00;;
8219;SDS011;4151;51.110;7.020;2023-04-01T11:42:31;11.10;;;7.20;;
8219;SDS011;4151;51.110;7.020;2023-04-01T11:50:41;9.47;;;6.77;;
8219;SDS011;4151;51.110;7.020;2023-04-01T11:53:12;17.90;;;6.67;;
8219;SDS011;4151;51.110;7.020;2023-04-01T12:02:07;12.03;;;7.03;;
8219;SDS011;4151;51.110;7.020;2023-04-01T12:04:52;8.37;;;6.17;;
8219;SDS011;4151;51.110;7.020;2023-04-01T12:08:08;8.93;;;6.27;;
8219;SDS011;4151;51.110;7.020;2023-04-01T12:10:39;13.13;;;6.90;;
8219;SDS011;4151;51.110;7.020;2023-04-01T12:13:35;9.40;;;5.70;;
8219;SDS011;4151;51.110;7.020;2023-04-01T12:16:11;8.50;;;5.97;;
8219;SDS011;4151;51.110;7.020;2023-04-01T12:18:40;9.40;;;5.13;;
8219;SDS011;4151;51.110;7.020;2023-04-01T12:24:25;7.47;;;5.50;;
8219;SDS011;4151;51.110;7.020;2023-04-01T12:35:18;7.10;;;5.13;;
8219;SDS011;4151;51.110;7.020;2023-04-01T12:40:56;6.23;;;4.57;;
8219;SDS011;4151;51.110;7.020;2023-04-01T12:43:52;7.00;;;5.20;;
8219;SDS011;4151;51.110;7.020;2023-04-01T12:49:20;7.60;;;5.57;;
8219;SDS011;4151;51.110;7.020;2023-04-01T13:03:20;6.80;;;5.30;;
8219;SDS011;4151;51.110;7.020;2023-04-01T13:17:36;9.97;;;5.90;;
8219;SDS011;4151;51.110;7.020;2023-04-01T13:28:24;10.63;;;6.03;;
8219;SDS011;4151;51.110;7.020;2023-04-01T13:31:01;9.77;;;6.40;;
8219;SDS011;4151;51.110;7.020;2023-04-01T13:41:50;7.30;;;5.90;;
8219;SDS011;4151;51.110;7.020;2023-04-01T13:55:45;8.07;;;5.80;;
8219;SDS011;4151;51.110;7.020;2023-04-01T14:06:42;8.60;;;6.10;;
8219;SDS011;4151;51.110;7.020;2023-04-01T14:12:36;10.27;;;6.23;;
8219;SDS011;4151;51.110;7.020;2023-04-01T14:48:31;10.53;;;5.50;;
8219;SDS011;4151;51.110;7.020;2023-04-01T14:51:34;7.33;;;4.90;;
8219;SDS011;4151;51.110;7.020;2023-04-01T14:54:08;7.03;;;5.57;;
8219;SDS011;4151;51.110;7.020;2023-04-01T14:56:49;7.27;;;5.40;;
8219;SDS011;4151;51.110;7.020;2023-04-01T15:13:12;7.00;;;4.90;;
8219;SDS011;4151;51.110;7.020;2023-04-01T15:16:00;5.97;;;4.03;;
8219;SDS011;4151;51.110;7.020;2023-04-01T15:29:41;11.00;;;6.40;;
8219;SDS011;4151;51.110;7.020;2023-04-01T15:35:36;8.67;;;6.10;;
8219;SDS011;4151;51.110;7.020;2023-04-01T15:38:20;9.57;;;6.40;;
8219;SDS011;4151;51.110;7.020;2023-04-01T15:41:15;14.30;;;6.20;;
8219;SDS011;4151;51.110;7.020;2023-04-01T15:44:01;9.03;;;5.90;;
8219;SDS011;4151;51.110;7.020;2023-04-01T15:49:14;8.50;;;5.80;;
8219;SDS011;4151;51.110;7.020;2023-04-01T15:52:03;8.97;;;6.23;;
8219;SDS011;4151;51.110;7.020;2023-04-01T15:54:45;7.50;;;5.60;;
8219;SDS011;4151;51.110;7.020;2023-04-01T16:00:25;7.57;;;5.20;;
8219;SDS011;4151;51.110;7.020;2023-04-01T16:15:19;8.27;;;5.13;;
8219;SDS011;4151;51.110;7.020;2023-04-01T16:17:56;7.23;;;5.23;;
8219;SDS011;4151;51.110;7.020;2023-04-01T16:20:44;7.10;;;5.37;;
8219;SDS011;4151;51.110;7.020;2023-04-01T16:35:15;15.43;;;6.70;;
8219;SDS011;4151;51.110;7.020;2023-04-01T16:38:18;11.73;;;6.70;;
8219;SDS011;4151;51.110;7.020;2023-04-01T16:51:48;7.80;;;4.47;;
8219;SDS011;4151;51.110;7.020;2023-04-01T16:57:21;9.17;;;5.73;;
8219;SDS011;4151;51.110;7.020;2023-04-01T17:02:33;9.13;;;5.90;;
8219;SDS011;4151;51.110;7.020;2023-04-01T17:05:09;8.13;;;5.50;;
8219;SDS011;4151;51.110;7.020;2023-04-01T17:15:47;8.37;;;5.40;;
8219;SDS011;4151;51.110;7.020;2023-04-01T17:18:27;8.23;;;5.30;;
8219;SDS011;4151;51.110;7.020;2023-04-01T17:21:15;8.23;;;5.53;;
8219;SDS011;4151;51.110;7.020;2023-04-01T17:31:46;8.50;;;5.77;;
8219;SDS011;4151;51.110;7.020;2023-04-01T17:34:21;10.27;;;5.57;;
8219;SDS011;4151;51.110;7.020;2023-04-01T17:39:53;6.60;;;4.60;;
8219;SDS011;4151;51.110;7.020;2023-04-01T17:45:10;5.80;;;5.10;;
8219;SDS011;4151;51.110;7.020;2023-04-01T17:48:01;9.30;;;5.23;;
8219;SDS011;4151;51.110;7.020;2023-04-01T17:56:39;7.67;;;5.60;;
8219;SDS011;4151;51.110;7.020;2023-04-01T18:05:01;9.50;;;5.43;;
8219;SDS011;4151;51.110;7.020;2023-04-01T18:10:28;7.93;;;5.20;;
8219;SDS011;4151;51.110;7.020;2023-04-01T18:13:24;8.20;;;5.67;;
8219;SDS011;4151;51.110;7.020;2023-04-01T18:16:11;8.63;;;5.70;;
8219;SDS011;4151;51.110;7.020;2023-04-01T18:19:02;11.70;;;6.53;;
8219;SDS011;4151;51.110;7.020;2023-04-01T18:22:08;7.90;;;5.53;;
8219;SDS011;4151;51.110;7.020;2023-04-01T18:24:42;10.07;;;6.00;;
8219;SDS011;4151;51.110;7.020;2023-04-01T18:27:42;9.80;;;6.00;;
8219;SDS011;4151;51.110;7.020;2023-04-01T18:30:32;8.33;;;5.90;;
8219;SDS011;4151;51.110;7.020;2023-04-01T18:33:04;10.40;;;6.20;;
8219;SDS011;4151;51.110;7.020;2023-04-01T18:35:50;8.27;;;5.40;;
8219;SDS011;4151;51.110;7.020;2023-04-01T18:38:45;11.63;;;5.77;;
8219;SDS011;4151;51.110;7.020;2023-04-01T18:52:33;9.33;;;6.23;;
8219;SDS011;4151;51.110;7.020;2023-04-01T19:00:22;10.13;;;6.57;;
8219;SDS011;4151;51.110;7.020;2023-04-01T19:05:38;8.93;;;5.80;;
8219;SDS011;4151;51.110;7.020;2023-04-01T19:11:06;12.37;;;6.10;;
8219;SDS011;4151;51.110;7.020;2023-04-01T19:13:58;9.20;;;5.77;;
8219;SDS011;4151;51.110;7.020;2023-04-01T19:30:58;13.80;;;7.57;;
8219;SDS011;4151;51.110;7.020;2023-04-01T19:39:13;17.47;;;9.13;;
8219;SDS011;4151;51.110;7.020;2023-04-01T19:41:47;14.83;;;8.53;;
8219;SDS011;4151;51.110;7.020;2023-04-01T19:44:31;19.90;;;10.60;;
8219;SDS011;4151;51.110;7.020;2023-04-01T19:47:05;16.20;;;9.23;;
8219;SDS011;4151;51.110;7.020;2023-04-01T19:52:39;20.57;;;10.80;;
8219;SDS011;4151;51.110;7.020;2023-04-01T19:57:59;15.97;;;9.33;;
8219;SDS011;4151;51.110;7.020;2023-04-01T20:00:58;19.53;;;10.50;;
8219;SDS011;4151;51.110;7.020;2023-04-01T20:09:06;19.43;;;9.63;;
8219;SDS011;4151;51.110;7.020;2023-04-01T20:11:43;19.30;;;9.13;;
8219;SDS011;4151;51.110;7.020;2023-04-01T20:17:06;14.60;;;8.90;;
8219;SDS011;4151;51.110;7.020;2023-04-01T20:25:21;17.33;;;9.03;;
8219;SDS011;4151;51.110;7.020;2023-04-01T20:27:57;17.63;;;9.73;;
8219;SDS011;4151;51.110;7.020;2023-04-01T20:35:56;16.50;;;8.70;;
8219;SDS011;4151;51.110;7.020;2023-04-01T20:44:20;14.73;;;8.57;;
8219;SDS011;4151;51.110;7.020;2023-04-01T20:47:15;14.07;;;8.47;;
8219;SDS011;4151;51.110;7.020;2023-04-01T20:58:19;18.90;;;10.33;;
8219;SDS011;4151;51.110;7.020;2023-04-01T21:00:59;20.70;;;10.37;;
8219;SDS011;4151;51.110;7.020;2023-04-01T21:06:33;16.97;;;10.67;;
8219;SDS011;4151;51.110;7.020;2023-04-01T21:09:15;19.60;;;10.37;;
8219;SDS011;4151;51.110;7.020;2023-04-01T21:12:05;20.30;;;10.60;;
8219;SDS011;4151;51.110;7.020;2023-04-01T21:20:14;21.40;;;10.30;;
8219;SDS011;4151;51.110;7.020;2023-04-01T21:23:11;25.73;;;9.70;;
8219;SDS011;4151;51.110;7.020;2023-04-01T21:29:33;19.80;;;9.90;;
8219;SDS011;4151;51.110;7.020;2023-04-01T21:39:29;19.50;;;9.37;;
8219;SDS011;4151;51.110;7.020;2023-04-01T21:45:13;23.77;;;10.53;;
8219;SDS011;4151;51.110;7.020;2023-04-01T21:52:57;20.10;;;11.00;;
8219;SDS011;4151;51.110;7.020;2023-04-01T21:58:30;18.87;;;9.93;;
8219;SDS011;4151;51.110;7.020;2023-04-01T22:06:47;18.80;;;9.10;;
8219;SDS011;4151;51.110;7.020;2023-04-01T22:09:20;26.00;;;11.60;;
8219;SDS011;4151;51.110;7.020;2023-04-01T22:11:57;18.23;;;10.00;;
8219;SDS011;4151;51.110;7.020;2023-04-01T22:14:47;22.73;;;10.90;;
8219;SDS011;4151;51.110;7.020;2023-04-01T22:20:40;21.20;;;10.87;;
8219;SDS011;4151;51.110;7.020;2023-04-01T22:23:09;24.13;;;11.90;;
8219;SDS011;4151;51.110;7.020;2023-04-01T22:25:49;25.30;;;11.83;;
8219;SDS011;4151;51.110;7.020;2023-04-01T22:28:51;20.00;;;11.10;;
8219;SDS011;4151;51.110;7.020;2023-04-01T22:31:38;26.27;;;11.33;;
8219;SDS011;4151;51.110;7.020;2023-04-01T22:34:19;22.90;;;11.37;;
8219;SDS011;4151;51.110;7.020;2023-04-01T22:37:05;23.73;;;11.50;;
8219;SDS011;4151;51.110;7.020;2023-04-01T22:40:00;19.07;;;10.00;;
8219;SDS011;4151;51.110;7.020;2023-04-01T22:48:29;18.53;;;9.07;;
8219;SDS011;4151;51.110;7.020;2023-04-01T22:54:04;20.83;;;11.60;;
8219;SDS011;4151;51.110;7.020;2023-04-01T22:56:48;16.73;;;9.40;;
8219;SDS011;4151;51.110;7.020;2023-04-01T22:59:22;16.47;;;9.50;;
8219;SDS011;4151;51.110;7.020;2023-04-01T23:04:53;19.03;;;9.53;;
8219;SDS011;4151;51.110;7.020;2023-04-01T23:10:02;23.10;;;10.70;;
8219;SDS011;4151;51.110;7.020;2023-04-01T23:12:30;20.60;;;9.93;;
8219;SDS011;4151;51.110;7.020;2023-04-01T23:14:59;23.67;;;10.63;;
8219;SDS011;4151;51.110;7.020;2023-04-01T23:17:34;20.70;;;9.00;;
8219;SDS011;4151;51.110;7.020;2023-04-01T23:20:26;19.50;;;9.90;;
8219;SDS011;4151;51.110;7.020;2023-04-01T23:25:43;20.40;;;10.50;;
8219;SDS011;4151;51.110;7.020;2023-04-01T23:31:24;16.30;;;9.57;;
8219;SDS011;4151;51.110;7.020;2023-04-01T23:36:49;16.90;;;8.10;;
8219;SDS011;4151;51.110;7.020;2023-04-01T23:41:48;1.93;;;1.70;;
8219;SDS011;4151;51.110;7.020;2023-04-01T23:44:16;2.43;;;1.80;;
8219;SDS011;4151;51.110;7.020;2023-04-01T23:46:42;1.93;;;1.80;;
8219;SDS011;4151;51.110;7.020;2023-04-01T23:49:14;2.97;;;1.40;;
8219;SDS011;4151;51.110;7.020;2023-04-01T23:51:53;2.27;;;1.43;;
8219;SDS011;4151;51.110;7.020;2023-04-01T23:54:39;2.23;;;1.70;;
8219;SDS011;4151;51.110;7.020;2023-04-01T23:57:19;2.50;;;1.87;;
